Terminal Aerodrome Forecast
Issued by NWS Charleston, WV

Current Version | Previous Version | Graphics & Text | Print | Product List | Glossary On
Versions: 1 2 3 4 5 6 7 8 9 10 11 12 13 14 15 16 17 18 19 20 21 22 23 24 25 26
359
FTUS41 KRLX 271755
TAFCRW
TAF
KCRW 271755Z 2718/2818 22004KT P6SM BKN060
     FM272300 33004KT P6SM VCTS OVC050CB
     FM280300 VRB03KT P6SM -SHRA BKN060
     FM280500 00000KT 5SM SHRA OVC040
     FM281400 00000KT 4SM -SHRA OVC015=

USA.gov is the U.S. government's official web portal to all federal, state and local government web resources and services.